createdAt,value
2018-08-04T00:00:37.966Z,24.23
2018-08-04T00:01:37.963Z,24.14
2018-08-04T00:02:37.921Z,24.21
2018-08-04T00:03:37.980Z,24.11
2018-08-04T00:04:37.881Z,24.12
2018-08-04T00:05:37.884Z,24.06
2018-08-04T00:06:37.848Z,24.08
2018-08-04T00:07:37.901Z,24.21
2018-08-04T00:08:37.805Z,24.11
2018-08-04T00:09:37.809Z,24.12
2018-08-04T00:10:37.769Z,24.00
2018-08-04T00:11:37.822Z,24.14
2018-08-04T00:12:37.737Z,24.12
2018-08-04T00:13:37.734Z,23.97
2018-08-04T00:14:37.692Z,24.06
2018-08-04T00:15:37.778Z,23.94
2018-08-04T00:16:37.658Z,24.00
2018-08-04T00:17:37.660Z,23.94
2018-08-04T00:18:37.613Z,23.94
2018-08-04T00:19:37.680Z,23.84
2018-08-04T00:20:37.583Z,23.82
2018-08-04T00:21:37.585Z,23.78
2018-08-04T00:22:37.547Z,23.79
2018-08-04T00:23:38.627Z,23.75
2018-08-04T00:24:37.496Z,23.79
2018-08-04T00:25:37.510Z,23.86
2018-08-04T00:26:37.465Z,23.74
2018-08-04T00:27:37.521Z,23.67
2018-08-04T00:28:37.424Z,23.74
2018-08-04T00:29:37.479Z,23.64
2018-08-04T00:30:37.380Z,23.75
2018-08-04T00:31:37.399Z,23.63
2018-08-04T00:32:37.345Z,23.68
2018-08-04T00:33:37.407Z,23.63
2018-08-04T00:34:37.319Z,23.62
2018-08-04T00:35:38.351Z,23.60
2018-08-04T00:36:37.283Z,23.57
2018-08-04T00:37:37.373Z,23.57
2018-08-04T00:38:37.237Z,23.62
2018-08-04T00:39:37.244Z,23.50
2018-08-04T00:40:37.204Z,23.42
2018-08-04T00:41:37.256Z,23.50
2018-08-04T00:42:37.157Z,23.49
2018-08-04T00:43:37.164Z,23.41
2018-08-04T00:44:37.126Z,23.44
2018-08-04T00:45:37.188Z,23.44
2018-08-04T00:46:37.081Z,23.53
2018-08-04T00:47:37.188Z,23.41
2018-08-04T00:48:37.046Z,23.49
2018-08-04T00:49:37.104Z,23.35
2018-08-04T00:50:37.027Z,23.35
2018-08-04T00:51:37.014Z,23.41
2018-08-04T00:52:36.990Z,23.31
2018-08-04T00:53:37.072Z,23.23
2018-08-04T00:54:36.932Z,23.26
2018-08-04T00:55:36.946Z,23.25
2018-08-04T00:56:36.889Z,23.19
2018-08-04T00:57:36.951Z,23.15
2018-08-04T00:58:36.854Z,23.18
2018-08-04T00:59:36.863Z,23.11
2018-08-04T01:00:36.808Z,23.11
2018-08-04T01:01:36.875Z,23.06
2018-08-04T01:02:36.821Z,23.12
2018-08-04T01:03:36.792Z,23.06
2018-08-04T01:04:36.756Z,23.07
2018-08-04T01:05:36.733Z,23.01
2018-08-04T01:06:36.824Z,23.04
2018-08-04T01:07:36.696Z,23.12
2018-08-04T01:08:37.744Z,22.96
2018-08-04T01:09:36.648Z,22.97
2018-08-04T01:10:36.737Z,22.97
2018-08-04T01:11:36.602Z,22.89
2018-08-04T01:12:36.667Z,23.00
2018-08-04T01:13:36.563Z,22.94
2018-08-04T01:14:36.560Z,22.88
2018-08-04T01:15:36.527Z,22.96
2018-08-04T01:16:36.571Z,22.86
2018-08-04T01:17:36.491Z,22.91
2018-08-04T01:18:36.485Z,22.85
2018-08-04T01:19:36.455Z,22.76
2018-08-04T01:20:36.497Z,22.86
2018-08-04T01:21:36.411Z,22.76
2018-08-04T01:22:36.405Z,22.78
2018-08-04T01:23:36.402Z,22.75
2018-08-04T01:24:36.427Z,22.75
2018-08-04T01:25:36.348Z,22.69
2018-08-04T01:26:36.332Z,22.61
2018-08-04T01:27:36.294Z,22.60
2018-08-04T01:28:36.354Z,22.59
2018-08-04T01:29:36.249Z,22.56
2018-08-04T01:30:36.273Z,22.59
2018-08-04T01:31:36.216Z,22.51
2018-08-04T01:32:36.295Z,22.54
2018-08-04T01:33:36.180Z,22.57
2018-08-04T01:34:36.191Z,22.46
2018-08-04T01:35:36.148Z,22.52
2018-08-04T01:36:36.217Z,22.42
2018-08-04T01:37:36.119Z,22.44
2018-08-04T01:38:36.114Z,22.52
2018-08-04T01:39:36.084Z,22.51
2018-08-04T01:40:36.126Z,22.44
2018-08-04T01:41:36.033Z,22.41
2018-08-04T01:42:36.048Z,22.45
2018-08-04T01:43:35.991Z,22.36
2018-08-04T01:44:36.102Z,22.41
2018-08-04T01:45:35.952Z,22.33
2018-08-04T01:46:35.969Z,22.31
2018-08-04T01:47:35.910Z,22.30
2018-08-04T01:48:35.974Z,22.23
2018-08-04T01:49:35.866Z,22.27
2018-08-04T01:50:35.886Z,22.30
2018-08-04T01:51:35.829Z,22.26
2018-08-04T01:52:35.915Z,22.20
2018-08-04T01:53:35.818Z,22.26
2018-08-04T01:54:35.819Z,22.23
2018-08-04T01:55:35.758Z,22.14
2018-08-04T01:56:35.831Z,22.20
2018-08-04T01:57:35.727Z,22.17
2018-08-04T01:58:35.732Z,22.12
2018-08-04T01:59:35.674Z,22.12
2018-08-04T02:00:35.741Z,22.06
2018-08-04T02:01:35.634Z,22.09
2018-08-04T02:02:35.652Z,22.06
2018-08-04T02:03:35.603Z,22.15
2018-08-04T02:04:35.679Z,22.15
2018-08-04T02:05:35.557Z,22.04
2018-08-04T02:06:35.582Z,22.11
2018-08-04T02:07:35.509Z,22.09
2018-08-04T02:08:35.596Z,22.12
2018-08-04T02:09:35.472Z,21.99
2018-08-04T02:10:35.504Z,21.99
2018-08-04T02:11:35.442Z,21.99
2018-08-04T02:12:35.526Z,21.99
2018-08-04T02:13:35.409Z,21.93
2018-08-04T02:14:35.432Z,21.98
2018-08-04T02:15:35.367Z,21.93
2018-08-04T02:16:35.443Z,22.01
2018-08-04T02:17:35.327Z,21.86
2018-08-04T02:18:35.358Z,21.89
2018-08-04T02:19:35.281Z,21.90
2018-08-04T02:20:35.369Z,21.79
2018-08-04T02:21:35.242Z,21.75
2018-08-04T02:22:35.275Z,21.75
2018-08-04T02:23:35.203Z,21.73
2018-08-04T02:24:35.291Z,21.77
2018-08-04T02:25:35.160Z,21.81
2018-08-04T02:26:36.230Z,21.71
2018-08-04T02:27:35.122Z,21.73
2018-08-04T02:28:35.122Z,21.63
2018-08-04T02:29:35.078Z,21.59
2018-08-04T02:30:35.140Z,21.59
2018-08-04T02:31:35.050Z,21.68
2018-08-04T02:32:35.043Z,21.63
2018-08-04T02:33:34.996Z,21.59
2018-08-04T02:34:35.065Z,21.68
2018-08-04T02:35:34.970Z,21.59
2018-08-04T02:36:34.969Z,21.61
2018-08-04T02:37:34.917Z,21.61
2018-08-04T02:38:34.983Z,21.55
2018-08-04T02:39:34.886Z,21.53
2018-08-04T02:40:34.994Z,21.48
2018-08-04T02:41:34.851Z,21.46
2018-08-04T02:42:34.903Z,21.49
2018-08-04T02:43:34.801Z,21.55
2018-08-04T02:44:34.823Z,21.51
2018-08-04T02:45:34.779Z,21.55
2018-08-04T02:46:34.832Z,21.53
2018-08-04T02:47:34.735Z,21.49
2018-08-04T02:48:34.745Z,21.49
2018-08-04T02:49:34.701Z,21.46
2018-08-04T02:50:34.750Z,21.46
2018-08-04T02:51:34.650Z,21.42
2018-08-04T02:52:34.675Z,21.43
2018-08-04T02:53:34.600Z,21.40
2018-08-04T02:54:34.677Z,21.45
2018-08-04T02:55:34.570Z,21.46
2018-08-04T02:56:34.588Z,21.34
2018-08-04T02:57:34.525Z,21.27
2018-08-04T02:58:34.603Z,21.26
2018-08-04T02:59:34.493Z,21.34
2018-08-04T03:00:34.522Z,21.28
2018-08-04T03:01:34.448Z,21.16
2018-08-04T03:02:34.528Z,21.22
2018-08-04T03:03:34.403Z,21.26
2018-08-04T03:04:34.443Z,21.22
2018-08-04T03:05:34.363Z,21.26
2018-08-04T03:06:34.449Z,21.19
2018-08-04T03:07:34.335Z,21.11
2018-08-04T03:08:34.419Z,21.18
2018-08-04T03:09:34.289Z,21.18
2018-08-04T03:10:34.391Z,21.11
2018-08-04T03:11:34.236Z,21.15
2018-08-04T03:12:34.290Z,21.13
2018-08-04T03:13:34.200Z,21.26
2018-08-04T03:14:34.198Z,21.15
2018-08-04T03:15:34.156Z,21.22
2018-08-04T03:16:34.216Z,21.09
2018-08-04T03:17:34.134Z,21.21
2018-08-04T03:18:34.232Z,21.08
2018-08-04T03:19:34.096Z,21.03
2018-08-04T03:20:34.072Z,21.09
2018-08-04T03:21:34.064Z,20.97
2018-08-04T03:22:34.029Z,21.08
2018-08-04T03:23:33.997Z,21.13
2018-08-04T03:24:33.989Z,21.06
2018-08-04T03:25:33.960Z,21.01
2018-08-04T03:26:33.945Z,21.01
2018-08-04T03:27:33.919Z,21.09
2018-08-04T03:28:33.907Z,21.06
2018-08-04T03:29:33.883Z,21.06
2018-08-04T03:30:33.870Z,21.03
2018-08-04T03:31:33.842Z,21.12
2018-08-04T03:32:33.819Z,21.12
2018-08-04T03:33:33.821Z,21.13
2018-08-04T03:34:33.787Z,21.05
2018-08-04T03:35:33.831Z,21.09
2018-08-04T03:36:33.741Z,21.01
2018-08-04T03:37:33.725Z,21.01
2018-08-04T03:38:33.707Z,20.97
2018-08-04T03:39:33.760Z,21.01
2018-08-04T03:40:33.664Z,21.01
2018-08-04T03:41:33.640Z,21.00
2018-08-04T03:42:33.680Z,21.05
2018-08-04T03:43:33.605Z,20.97
2018-08-04T03:44:33.620Z,20.96
2018-08-04T03:45:33.575Z,20.94
2018-08-04T03:46:33.642Z,21.01
2018-08-04T03:47:33.536Z,20.97
2018-08-04T03:48:33.554Z,20.97
2018-08-04T03:49:33.495Z,21.01
2018-08-04T03:50:33.564Z,20.98
2018-08-04T03:51:33.437Z,20.97
2018-08-04T03:52:33.480Z,20.98
2018-08-04T03:53:33.435Z,21.12
2018-08-04T03:54:33.489Z,21.00
2018-08-04T03:55:33.354Z,21.01
2018-08-04T03:56:33.400Z,21.00
2018-08-04T03:57:33.318Z,20.98
2018-08-04T03:58:34.334Z,21.03
2018-08-04T03:59:33.287Z,21.15
2018-08-04T04:00:33.334Z,21.13
2018-08-04T04:01:33.252Z,21.01
2018-08-04T04:02:33.248Z,21.06
2018-08-04T04:03:33.213Z,21.11
2018-08-04T04:04:33.254Z,21.06
2018-08-04T04:05:33.155Z,21.08
2018-08-04T04:06:33.209Z,21.08
2018-08-04T04:07:33.119Z,21.08
2018-08-04T04:08:33.178Z,21.15
2018-08-04T04:09:33.148Z,21.24
2018-08-04T04:10:33.087Z,21.27
2018-08-04T04:11:33.038Z,21.26
2018-08-04T04:12:33.106Z,21.26
2018-08-04T04:13:33.006Z,21.30
2018-08-04T04:14:33.016Z,21.30
2018-08-04T04:15:32.976Z,21.37
2018-08-04T04:16:33.031Z,21.34
2018-08-04T04:17:32.947Z,21.30
2018-08-04T04:18:32.944Z,21.37
2018-08-04T04:19:32.870Z,21.37
2018-08-04T04:20:32.955Z,21.31
2018-08-04T04:21:32.839Z,21.28
2018-08-04T04:22:33.893Z,21.27
2018-08-04T04:23:32.797Z,21.19
2018-08-04T04:24:32.883Z,21.16
2018-08-04T04:25:32.753Z,21.22
2018-08-04T04:26:32.792Z,21.24
2018-08-04T04:27:32.719Z,21.28
2018-08-04T04:28:32.808Z,21.38
2018-08-04T04:29:32.671Z,21.30
2018-08-04T04:30:32.723Z,21.33
2018-08-04T04:31:32.644Z,21.27
2018-08-04T04:32:32.726Z,21.22
2018-08-04T04:33:32.617Z,21.24
2018-08-04T04:34:32.636Z,21.26
2018-08-04T04:35:32.584Z,21.18
2018-08-04T04:36:32.558Z,21.13
2018-08-04T04:37:32.521Z,21.11
2018-08-04T04:38:32.560Z,21.08
2018-08-04T04:39:32.468Z,21.08
2018-08-04T04:40:32.482Z,21.15
2018-08-04T04:41:32.437Z,21.03
2018-08-04T04:42:32.483Z,21.00
2018-08-04T04:43:32.393Z,21.01
2018-08-04T04:44:32.404Z,20.85
2018-08-04T04:45:32.356Z,21.03
2018-08-04T04:46:32.429Z,21.08
2018-08-04T04:47:32.307Z,21.11
2018-08-04T04:48:32.302Z,21.09
2018-08-04T04:49:32.285Z,21.03
2018-08-04T04:50:32.244Z,20.97
2018-08-04T04:51:32.235Z,20.90
2018-08-04T04:52:32.205Z,21.00
2018-08-04T04:53:32.192Z,20.98
2018-08-04T04:54:32.176Z,20.91
2018-08-04T04:55:32.164Z,21.00
2018-08-04T04:56:32.143Z,21.03
2018-08-04T04:57:32.114Z,20.98
2018-08-04T04:59:18.054Z,20.91
2018-08-04T05:00:18.006Z,20.94
2018-08-04T05:01:17.990Z,20.90
2018-08-04T05:02:18.013Z,20.96
2018-08-04T05:03:17.991Z,21.00
2018-08-04T05:04:17.924Z,20.98
2018-08-04T05:05:17.908Z,20.97
2018-08-04T05:06:18.016Z,21.00
2018-08-04T05:07:17.876Z,20.94
2018-08-04T05:08:17.926Z,20.96
2018-08-04T05:09:17.825Z,21.03
2018-08-04T05:10:17.976Z,21.03
2018-08-04T05:11:17.796Z,21.11
2018-08-04T05:12:17.841Z,21.08
2018-08-04T05:13:17.799Z,21.09
2018-08-04T05:14:17.871Z,21.15
2018-08-04T05:15:17.701Z,21.19
2018-08-04T05:16:17.791Z,21.22
2018-08-04T05:17:17.663Z,21.28
2018-08-04T05:18:17.800Z,21.36
2018-08-04T05:19:17.656Z,21.38
2018-08-04T05:20:17.716Z,21.37
2018-08-04T05:21:17.601Z,21.49
2018-08-04T05:22:17.731Z,21.53
2018-08-04T05:23:17.556Z,21.56
2018-08-04T05:24:17.620Z,21.64
2018-08-04T05:25:17.499Z,21.63
2018-08-04T05:26:17.637Z,21.67
2018-08-04T05:27:17.456Z,21.68
2018-08-04T05:28:17.549Z,21.59
2018-08-04T05:29:17.422Z,21.68
2018-08-04T05:30:17.489Z,21.55
2018-08-04T05:31:17.383Z,21.71
2018-08-04T05:32:17.473Z,21.71
2018-08-04T05:33:17.334Z,21.71
2018-08-04T05:34:17.400Z,21.75
2018-08-04T05:35:17.298Z,21.79
2018-08-04T05:36:17.399Z,21.77
2018-08-04T05:37:17.269Z,21.74
2018-08-04T05:38:17.311Z,21.77
2018-08-04T05:39:17.219Z,21.64
2018-08-04T05:41:03.517Z,21.77
2018-08-04T05:42:03.617Z,21.59
2018-08-04T05:43:03.432Z,21.58
2018-08-04T05:44:03.527Z,21.59
2018-08-04T05:45:03.385Z,21.73
2018-08-04T05:46:03.443Z,21.67
2018-08-04T05:47:03.349Z,21.68
2018-08-04T05:48:03.474Z,21.67
2018-08-04T05:49:03.309Z,21.61
2018-08-04T05:50:03.395Z,21.68
2018-08-04T05:51:03.270Z,21.73
2018-08-04T05:52:03.399Z,21.61
2018-08-04T05:53:03.237Z,21.70
2018-08-04T05:54:03.332Z,21.74
2018-08-04T05:55:03.207Z,21.74
2018-08-04T05:56:03.319Z,21.85
2018-08-04T05:57:03.155Z,21.73
2018-08-04T05:58:03.241Z,21.82
2018-08-04T05:59:03.140Z,21.74
2018-08-04T06:00:03.234Z,21.81
2018-08-04T06:01:03.072Z,21.77
2018-08-04T06:02:03.085Z,21.91
2018-08-04T06:03:03.020Z,21.82
2018-08-04T06:04:03.152Z,21.91
2018-08-04T06:05:02.998Z,21.96
2018-08-04T06:06:03.065Z,21.93
2018-08-04T06:07:02.948Z,21.98
2018-08-04T06:08:03.076Z,22.01
2018-08-04T06:09:02.915Z,21.94
2018-08-04T06:10:02.992Z,22.06
2018-08-04T06:11:02.871Z,22.12
2018-08-04T06:12:03.942Z,22.14
2018-08-04T06:13:02.832Z,22.14
2018-08-04T06:14:02.923Z,22.27
2018-08-04T06:15:02.793Z,22.09
2018-08-04T06:16:02.943Z,22.17
2018-08-04T06:17:02.742Z,22.19
2018-08-04T06:18:04.895Z,22.31
2018-08-04T06:19:02.701Z,22.35
2018-08-04T06:20:02.863Z,22.39
2018-08-04T06:21:02.678Z,22.46
2018-08-04T06:22:02.814Z,22.51
2018-08-04T06:23:02.641Z,22.66
2018-08-04T06:24:02.786Z,22.63
2018-08-04T06:25:02.578Z,22.59
2018-08-04T06:26:02.700Z,22.69
2018-08-04T06:27:02.544Z,22.72
2018-08-04T06:28:02.613Z,22.75
2018-08-04T06:29:02.516Z,22.82
2018-08-04T06:30:03.646Z,22.72
2018-08-04T06:31:02.460Z,22.75
2018-08-04T06:32:02.541Z,22.78
2018-08-04T06:33:02.416Z,22.88
2018-08-04T06:34:09.205Z,22.97
2018-08-04T06:35:02.377Z,23.03
2018-08-04T06:36:02.466Z,23.12
2018-08-04T06:37:02.348Z,23.16
2018-08-04T06:38:02.485Z,23.16
2018-08-04T06:39:02.294Z,23.21
2018-08-04T06:40:02.384Z,23.23
2018-08-04T06:41:02.254Z,23.23
2018-08-04T06:42:03.422Z,23.26
2018-08-04T06:43:02.214Z,23.37
2018-08-04T06:44:02.305Z,23.23
2018-08-04T06:45:02.180Z,23.38
2018-08-04T06:46:02.319Z,23.44
2018-08-04T06:47:02.129Z,23.47
2018-08-04T06:48:04.280Z,23.32
2018-08-04T06:49:02.094Z,23.49
2018-08-04T06:50:07.167Z,23.41
2018-08-04T06:51:02.049Z,23.35
2018-08-04T06:52:02.162Z,23.41
2018-08-04T06:53:02.017Z,23.39
2018-08-04T06:54:02.175Z,23.50
2018-08-04T06:55:01.992Z,23.60
2018-08-04T06:56:02.085Z,23.62
2018-08-04T06:57:01.942Z,23.62
2018-08-04T06:58:02.102Z,23.63
2018-08-04T06:59:01.888Z,23.74
2018-08-04T07:00:02.024Z,23.72
2018-08-04T07:01:01.846Z,23.82
2018-08-04T07:02:02.027Z,23.90
2018-08-04T07:03:01.842Z,23.99
2018-08-04T07:04:01.933Z,24.00
2018-08-04T07:05:01.764Z,23.86
2018-08-04T07:06:01.950Z,23.96
2018-08-04T07:07:01.723Z,23.93
2018-08-04T07:08:01.876Z,23.99
2018-08-04T07:09:01.686Z,23.94
2018-08-04T07:10:01.771Z,23.94
2018-08-04T07:11:01.645Z,23.96
2018-08-04T07:12:01.791Z,23.93
2018-08-04T07:13:01.607Z,23.93
2018-08-04T07:14:01.696Z,23.84
2018-08-04T07:15:01.573Z,23.93
2018-08-04T07:16:01.719Z,23.97
2018-08-04T07:17:01.548Z,23.93
2018-08-04T07:18:01.647Z,23.96
2018-08-04T07:19:01.488Z,24.02
2018-08-04T07:20:01.688Z,23.96
2018-08-04T07:21:01.431Z,24.00
2018-08-04T07:22:01.565Z,23.94
2018-08-04T07:23:01.453Z,23.87
2018-08-04T07:24:01.559Z,23.94
2018-08-04T07:25:01.366Z,23.92
2018-08-04T07:26:48.260Z,23.89
2018-08-04T07:27:48.379Z,24.00
2018-08-04T07:28:48.206Z,24.08
2018-08-04T07:29:48.295Z,24.18
2018-08-04T07:30:48.152Z,24.23
2018-08-04T07:31:48.305Z,24.26
2018-08-04T07:32:48.118Z,24.18
2018-08-04T07:33:48.223Z,24.12
2018-08-04T07:34:48.078Z,24.05
2018-08-04T07:35:48.242Z,24.05
2018-08-04T07:36:48.037Z,24.12
2018-08-04T07:37:48.138Z,24.12
2018-08-04T07:38:48.000Z,24.09
2018-08-04T07:39:48.152Z,24.18
2018-08-04T07:40:47.949Z,24.14
2018-08-04T07:41:48.062Z,24.14
2018-08-04T07:42:47.916Z,24.08
2018-08-04T07:43:47.987Z,24.14
2018-08-04T07:44:47.873Z,24.05
2018-08-04T07:45:47.891Z,24.18
2018-08-04T07:46:47.837Z,24.16
2018-08-04T07:47:48.010Z,24.16
2018-08-04T07:48:47.811Z,24.19
2018-08-04T07:49:47.923Z,24.23
2018-08-04T07:50:47.814Z,24.21
2018-08-04T07:51:47.829Z,24.18
2018-08-04T07:52:47.708Z,24.21
2018-08-04T07:53:47.856Z,24.23
2018-08-04T07:54:47.679Z,24.33
2018-08-04T07:55:47.854Z,24.31
2018-08-04T07:56:47.619Z,24.23
2018-08-04T07:57:47.669Z,24.30
2018-08-04T07:58:47.597Z,24.36
2018-08-04T07:59:47.668Z,24.55
2018-08-04T08:00:47.545Z,24.48
2018-08-04T08:01:47.580Z,24.60
2018-08-04T08:02:47.507Z,24.66
2018-08-04T08:03:47.591Z,24.67
2018-08-04T08:04:47.463Z,24.74
2018-08-04T08:05:47.500Z,24.80
2018-08-04T08:06:47.414Z,24.71
2018-08-04T08:07:47.515Z,24.84
2018-08-04T08:08:47.385Z,24.87
2018-08-04T08:09:47.426Z,24.82
2018-08-04T08:10:47.377Z,24.82
2018-08-04T08:11:47.437Z,24.87
2018-08-04T08:12:47.298Z,24.90
2018-08-04T08:13:47.347Z,25.02
2018-08-04T08:14:47.271Z,24.94
2018-08-04T08:15:47.247Z,24.98
2018-08-04T08:16:47.370Z,24.99
2018-08-04T08:17:47.197Z,25.01
2018-08-04T08:18:47.276Z,25.09
2018-08-04T08:19:47.154Z,25.09
2018-08-04T08:20:47.193Z,25.05
2018-08-04T08:21:47.152Z,25.08
2018-08-04T08:22:47.246Z,25.01
2018-08-04T08:23:47.075Z,25.04
2018-08-04T08:24:47.173Z,25.11
2018-08-04T08:25:47.050Z,25.09
2018-08-04T08:26:47.122Z,25.22
2018-08-04T08:27:46.994Z,25.31
2018-08-04T08:28:47.028Z,25.41
2018-08-04T08:29:46.959Z,25.45
2018-08-04T08:30:46.940Z,25.49
2018-08-04T08:31:46.914Z,25.53
2018-08-04T08:32:47.005Z,25.54
2018-08-04T08:33:46.871Z,25.54
2018-08-04T08:34:46.863Z,25.56
2018-08-04T08:35:46.829Z,25.59
2018-08-04T08:36:46.813Z,25.59
2018-08-04T08:37:46.898Z,25.60
2018-08-04T08:38:46.789Z,25.74
2018-08-04T08:39:46.809Z,25.71
2018-08-04T08:40:46.729Z,25.64
2018-08-04T08:41:46.921Z,25.74
2018-08-04T08:42:46.688Z,25.86
2018-08-04T08:43:46.716Z,25.98
2018-08-04T08:44:46.692Z,26.04
2018-08-04T08:45:46.730Z,25.96
2018-08-04T08:46:46.613Z,25.91
2018-08-04T08:47:46.660Z,26.09
2018-08-04T08:48:46.578Z,26.20
2018-08-04T08:49:46.679Z,26.17
2018-08-04T08:50:46.524Z,26.13
2018-08-04T08:51:46.585Z,26.20
2018-08-04T08:52:46.491Z,26.20
2018-08-04T08:53:46.681Z,26.20
2018-08-04T08:54:46.455Z,26.35
2018-08-04T08:55:46.505Z,26.32
2018-08-04T08:56:46.412Z,26.47
2018-08-04T08:57:46.543Z,26.64
2018-08-04T08:58:46.371Z,26.65
2018-08-04T08:59:46.433Z,26.60
2018-08-04T09:00:46.334Z,26.75
2018-08-04T09:01:46.453Z,26.93
2018-08-04T09:02:46.294Z,26.93
2018-08-04T09:03:46.361Z,26.88
2018-08-04T09:04:46.253Z,27.01
2018-08-04T09:05:46.314Z,27.13
2018-08-04T09:06:46.229Z,27.25
2018-08-04T09:07:46.262Z,27.24
2018-08-04T09:08:46.227Z,27.38
2018-08-04T09:09:46.168Z,27.42
2018-08-04T09:10:46.152Z,27.33
2018-08-04T09:11:46.226Z,27.34
2018-08-04T09:12:46.090Z,27.30
2018-08-04T09:13:46.148Z,27.33
2018-08-04T09:14:46.056Z,27.45
2018-08-04T09:15:46.145Z,27.46
2018-08-04T09:16:46.010Z,27.50
2018-08-04T09:17:46.048Z,27.49
2018-08-04T09:18:45.983Z,27.55
2018-08-04T09:19:46.062Z,27.59
2018-08-04T09:20:45.927Z,27.50
2018-08-04T09:21:45.977Z,27.53
2018-08-04T09:22:45.923Z,27.53
2018-08-04T09:23:45.993Z,27.63
2018-08-04T09:24:45.890Z,27.74
2018-08-04T09:25:45.927Z,27.77
2018-08-04T09:26:45.808Z,27.83
2018-08-04T09:27:45.951Z,27.88
2018-08-04T09:28:45.769Z,27.91
2018-08-04T09:29:45.854Z,27.95
2018-08-04T09:30:45.743Z,28.01
2018-08-04T09:31:45.729Z,28.03
2018-08-04T09:32:45.693Z,28.02
2018-08-04T09:33:45.742Z,27.96
2018-08-04T09:34:45.655Z,28.05
2018-08-04T09:35:46.790Z,28.05
2018-08-04T09:36:45.615Z,28.13
2018-08-04T09:37:45.668Z,28.18
2018-08-04T09:38:45.567Z,28.21
2018-08-04T09:39:45.689Z,28.28
2018-08-04T09:40:45.543Z,28.32
2018-08-04T09:41:45.591Z,28.25
2018-08-04T09:42:45.495Z,28.30
2018-08-04T09:43:45.605Z,28.33
2018-08-04T09:44:45.450Z,28.35
2018-08-04T09:45:45.519Z,28.33
2018-08-04T09:46:45.419Z,28.25
2018-08-04T09:47:45.526Z,28.33
2018-08-04T09:48:45.370Z,28.45
2018-08-04T09:49:45.444Z,28.51
2018-08-04T09:50:45.347Z,28.54
2018-08-04T09:51:45.483Z,28.51
2018-08-04T09:52:45.304Z,28.52
2018-08-04T09:53:45.384Z,28.42
2018-08-04T09:54:45.263Z,28.51
2018-08-04T09:55:45.277Z,28.42
2018-08-04T09:56:45.211Z,28.35
2018-08-04T09:57:45.294Z,28.39
2018-08-04T09:58:45.175Z,28.30
2018-08-04T09:59:45.193Z,28.45
2018-08-04T10:00:45.139Z,28.46
2018-08-04T10:01:45.207Z,28.52
2018-08-04T10:02:45.088Z,28.51
2018-08-04T10:03:45.125Z,28.61
2018-08-04T10:04:45.067Z,28.55
2018-08-04T10:05:45.143Z,28.57
2018-08-04T10:06:45.005Z,28.54
2018-08-04T10:07:45.115Z,28.54
2018-08-04T10:08:44.991Z,28.60
2018-08-04T10:09:46.143Z,28.64
2018-08-04T10:10:44.932Z,28.55
2018-08-04T10:11:45.044Z,28.65
2018-08-04T10:12:44.892Z,28.72
2018-08-04T10:13:44.960Z,28.69
2018-08-04T10:14:44.854Z,28.79
2018-08-04T10:15:44.984Z,28.80
2018-08-04T10:16:44.812Z,28.91
2018-08-04T10:17:44.880Z,28.97
2018-08-04T10:18:44.768Z,29.02
2018-08-04T10:19:44.789Z,28.98
2018-08-04T10:20:44.729Z,29.12
2018-08-04T10:21:44.806Z,29.15
2018-08-04T10:22:44.679Z,29.33
2018-08-04T10:23:44.717Z,29.25
2018-08-04T10:24:44.652Z,29.30
2018-08-04T10:25:44.719Z,29.35
2018-08-04T10:26:44.610Z,29.36
2018-08-04T10:27:44.631Z,29.39
2018-08-04T10:28:44.571Z,29.35
2018-08-04T10:29:44.655Z,29.35
2018-08-04T10:30:44.543Z,29.25
2018-08-04T10:31:46.610Z,29.21
2018-08-04T10:32:44.547Z,29.20
2018-08-04T10:33:46.518Z,29.17
2018-08-04T10:34:44.455Z,29.12
2018-08-04T10:35:49.131Z,29.14
2018-08-04T10:36:44.426Z,29.27
2018-08-04T10:37:56.078Z,29.30
2018-08-04T10:38:44.375Z,29.17
2018-08-04T10:39:49.116Z,29.33
2018-08-04T10:40:44.349Z,29.48
2018-08-04T10:41:44.424Z,29.55
2018-08-04T10:42:44.304Z,29.60
2018-08-04T10:43:44.325Z,29.70
2018-08-04T10:44:44.258Z,29.64
2018-08-04T10:45:45.286Z,29.67
2018-08-04T10:46:44.220Z,29.74
2018-08-04T10:47:44.278Z,29.70
2018-08-04T10:48:44.195Z,29.67
2018-08-04T10:49:44.287Z,29.81
2018-08-04T10:50:44.135Z,29.92
2018-08-04T10:51:44.178Z,30.00
2018-08-04T10:52:44.103Z,29.97
2018-08-04T10:53:44.197Z,30.00
2018-08-04T10:54:44.065Z,30.00
2018-08-04T10:55:44.045Z,30.04
2018-08-04T10:56:44.203Z,30.04
2018-08-04T10:57:44.009Z,29.91
2018-08-04T10:58:44.061Z,29.88
2018-08-04T10:59:43.963Z,30.06
2018-08-04T11:00:46.013Z,29.91
2018-08-04T11:01:43.933Z,29.91
2018-08-04T11:02:43.992Z,29.99
2018-08-04T11:03:43.946Z,30.03
2018-08-04T11:04:43.993Z,30.04
2018-08-04T11:05:43.848Z,30.13
2018-08-04T11:06:43.907Z,30.07
2018-08-04T11:07:43.818Z,30.03
2018-08-04T11:08:43.918Z,30.07
2018-08-04T11:09:43.775Z,30.06
2018-08-04T11:10:43.836Z,30.15
2018-08-04T11:11:43.752Z,30.23
2018-08-04T11:12:43.802Z,30.25
2018-08-04T11:13:43.695Z,30.30
2018-08-04T11:14:43.718Z,30.30
2018-08-04T11:15:43.654Z,30.29
2018-08-04T11:16:43.724Z,30.21
2018-08-04T11:17:43.632Z,30.34
2018-08-04T11:18:43.643Z,30.29
2018-08-04T11:19:43.575Z,30.23
2018-08-04T11:20:43.653Z,30.26
2018-08-04T11:21:43.535Z,30.29
2018-08-04T11:22:43.558Z,30.32
2018-08-04T11:23:43.501Z,30.37
2018-08-04T11:24:43.576Z,30.54
2018-08-04T11:25:43.464Z,30.48
2018-08-04T11:26:43.494Z,30.40
2018-08-04T11:27:43.441Z,30.36
2018-08-04T11:28:43.493Z,30.34
2018-08-04T11:29:43.389Z,30.37
2018-08-04T11:30:43.435Z,30.48
2018-08-04T11:31:43.365Z,30.57
2018-08-04T11:32:43.525Z,30.63
2018-08-04T11:33:43.311Z,30.53
2018-08-04T11:34:43.336Z,30.64
2018-08-04T11:35:43.276Z,30.45
2018-08-04T11:36:43.367Z,30.57
2018-08-04T11:37:43.260Z,30.42
2018-08-04T11:38:43.243Z,30.56
2018-08-04T11:39:43.192Z,30.45
2018-08-04T11:40:43.264Z,30.53
2018-08-04T11:41:43.154Z,30.42
2018-08-04T11:42:43.169Z,30.38
2018-08-04T11:43:43.124Z,30.37
2018-08-04T11:44:43.187Z,30.38
2018-08-04T11:45:43.077Z,30.23
2018-08-04T11:46:43.123Z,30.29
2018-08-04T11:47:43.045Z,30.34
2018-08-04T11:48:43.110Z,30.56
2018-08-04T11:49:43.020Z,30.63
2018-08-04T11:50:43.037Z,30.73
2018-08-04T11:51:42.969Z,30.76
2018-08-04T11:52:43.027Z,30.76
2018-08-04T11:53:42.936Z,30.75
2018-08-04T11:54:42.946Z,30.78
2018-08-04T11:55:42.912Z,30.78
2018-08-04T11:56:42.968Z,30.82
2018-08-04T11:57:42.852Z,30.76
2018-08-04T11:58:42.869Z,30.72
2018-08-04T11:59:42.815Z,30.72
2018-08-04T12:00:42.878Z,30.67
2018-08-04T12:01:42.770Z,30.49
2018-08-04T12:02:42.790Z,30.51
2018-08-04T12:03:42.734Z,30.59
2018-08-04T12:04:42.802Z,30.60
2018-08-04T12:05:42.694Z,30.81
2018-08-04T12:06:42.728Z,30.85
2018-08-04T12:07:42.660Z,30.97
2018-08-04T12:08:42.727Z,30.97
2018-08-04T12:09:42.629Z,30.96
2018-08-04T12:10:42.648Z,30.91
2018-08-04T12:11:42.588Z,30.79
2018-08-04T12:12:42.656Z,30.81
2018-08-04T12:13:42.553Z,30.79
2018-08-04T12:14:42.571Z,30.68
2018-08-04T12:15:42.527Z,30.57
2018-08-04T12:16:42.580Z,30.78
2018-08-04T12:17:42.477Z,30.79
2018-08-04T12:18:42.486Z,30.88
2018-08-04T12:19:42.450Z,30.94
2018-08-04T12:20:42.493Z,30.85
2018-08-04T12:21:42.412Z,30.94
2018-08-04T12:22:42.429Z,30.94
2018-08-04T12:23:42.369Z,30.98
2018-08-04T12:24:42.420Z,30.91
2018-08-04T12:25:42.342Z,30.86
2018-08-04T12:26:42.327Z,30.86
2018-08-04T12:27:42.294Z,30.98
2018-08-04T12:28:42.343Z,30.96
2018-08-04T12:29:42.266Z,31.20
2018-08-04T12:30:42.256Z,31.25
2018-08-04T12:31:42.229Z,31.23
2018-08-04T12:32:42.271Z,31.13
2018-08-04T12:33:42.181Z,31.03
2018-08-04T12:34:42.180Z,30.93
2018-08-04T12:35:42.158Z,31.09
2018-08-04T12:36:42.201Z,31.13
2018-08-04T12:37:42.115Z,31.27
2018-08-04T12:38:42.214Z,31.32
2018-08-04T12:39:42.079Z,31.46
2018-08-04T12:40:42.111Z,31.53
2018-08-04T12:41:42.042Z,31.59
2018-08-04T12:42:42.125Z,31.49
2018-08-04T12:43:42.029Z,31.41
2018-08-04T12:44:42.039Z,31.32
2018-08-04T12:45:41.979Z,31.15
2018-08-04T12:46:42.054Z,31.20
2018-08-04T12:47:41.931Z,31.15
2018-08-04T12:48:41.961Z,31.16
2018-08-04T12:49:41.912Z,31.23
2018-08-04T12:50:41.974Z,31.20
2018-08-04T12:51:41.865Z,31.31
2018-08-04T12:52:41.888Z,31.22
2018-08-04T12:53:41.828Z,31.22
2018-08-04T12:54:41.895Z,31.30